createdAt,value
2019-02-28T00:00:01.996Z,3.80
2019-02-28T00:01:11.879Z,3.56
2019-02-28T00:02:14.561Z,3.53
2019-02-28T00:03:20.481Z,3.56
2019-02-28T00:04:32.021Z,3.70
2019-02-28T00:05:32.363Z,3.76
2019-02-28T00:06:38.235Z,3.82
2019-02-28T00:07:44.855Z,3.94
2019-02-28T00:08:53.683Z,3.91
2019-02-28T00:09:57.493Z,3.86
2019-02-28T00:11:05.092Z,3.88
2019-02-28T00:12:10.240Z,3.78
2019-02-28T00:13:14.681Z,3.79
2019-02-28T00:14:20.610Z,3.79
2019-02-28T00:15:26.159Z,3.84
2019-02-28T00:16:32.141Z,3.73
2019-02-28T00:17:42.559Z,3.52
2019-02-28T00:18:44.241Z,3.39
2019-02-28T00:19:50.185Z,3.33
2019-02-28T00:20:56.059Z,3.32
2019-02-28T00:22:01.948Z,3.37
2019-02-28T00:23:07.858Z,3.38
2019-02-28T00:24:13.731Z,3.38
2019-02-28T00:25:19.736Z,3.43
2019-02-28T00:26:25.664Z,3.46
2019-02-28T00:27:31.657Z,3.48
2019-02-28T00:28:37.576Z,3.60
2019-02-28T00:29:43.524Z,3.56
2019-02-28T00:30:49.429Z,3.55
2019-02-28T00:31:55.326Z,3.50
2019-02-28T00:33:01.249Z,3.46
2019-02-28T00:34:07.166Z,3.36
2019-02-28T00:35:13.496Z,3.33
2019-02-28T00:36:19.309Z,3.21
2019-02-28T00:37:25.575Z,3.16
2019-02-28T00:38:30.430Z,3.13
2019-02-28T00:39:36.244Z,3.02
2019-02-28T00:40:42.138Z,3.14
2019-02-28T00:41:48.057Z,3.07
2019-02-28T00:42:53.968Z,3.05
2019-02-28T00:43:59.896Z,3.05
2019-02-28T00:45:05.109Z,3.20
2019-02-28T00:46:11.062Z,3.25
2019-02-28T00:47:17.175Z,3.18
2019-02-28T00:48:22.887Z,3.13
2019-02-28T00:49:28.771Z,3.08
2019-02-28T00:50:34.727Z,3.13
2019-02-28T00:51:40.266Z,3.12
2019-02-28T00:52:46.202Z,2.98
2019-02-28T00:53:52.111Z,3.02
2019-02-28T00:54:58.057Z,3.36
2019-02-28T00:56:03.641Z,3.27
2019-02-28T00:57:09.529Z,3.06
2019-02-28T00:58:15.656Z,3.00
2019-02-28T00:59:21.803Z,3.05
2019-02-28T01:00:27.445Z,3.27
2019-02-28T01:01:33.563Z,3.43
2019-02-28T01:02:39.564Z,3.72
2019-02-28T01:03:45.425Z,3.87
2019-02-28T01:04:51.521Z,3.90
2019-02-28T01:05:57.557Z,3.99
2019-02-28T01:07:03.512Z,4.07
2019-02-28T01:08:09.509Z,3.91
2019-02-28T01:09:15.674Z,3.73
2019-02-28T01:10:22.812Z,3.14
2019-02-28T01:11:29.271Z,3.06
2019-02-28T01:12:36.830Z,3.00
2019-02-28T01:13:42.927Z,2.92
2019-02-28T01:14:48.994Z,2.87
2019-02-28T01:15:55.955Z,2.91
2019-02-28T01:17:01.886Z,2.91
2019-02-28T01:18:07.817Z,2.93
2019-02-28T01:19:13.810Z,2.87
2019-02-28T01:20:19.840Z,2.78
2019-02-28T01:21:25.732Z,2.83
2019-02-28T01:22:31.629Z,2.75
2019-02-28T01:23:37.518Z,2.80
2019-02-28T01:24:43.463Z,2.80
2019-02-28T01:25:49.136Z,2.92
2019-02-28T01:26:55.101Z,2.95
2019-02-28T01:28:01.084Z,3.08
2019-02-28T01:29:07.005Z,3.15
2019-02-28T01:30:12.897Z,3.06
2019-02-28T01:31:18.899Z,3.13
2019-02-28T01:32:25.229Z,3.06
2019-02-28T01:33:31.538Z,2.84
2019-02-28T01:34:37.559Z,2.66
2019-02-28T01:35:43.660Z,2.56
2019-02-28T01:36:49.682Z,2.65
2019-02-28T01:37:55.774Z,2.68
2019-02-28T01:39:01.672Z,2.74
2019-02-28T01:40:07.880Z,2.75
2019-02-28T01:41:13.849Z,2.72
2019-02-28T01:42:20.785Z,2.66
2019-02-28T01:43:28.803Z,2.56
2019-02-28T01:44:35.535Z,2.58
2019-02-28T01:45:38.094Z,2.61
2019-02-28T01:46:44.097Z,2.61
2019-02-28T01:47:51.704Z,2.81
2019-02-28T01:48:56.379Z,2.91
2019-02-28T01:50:02.503Z,3.07
2019-02-28T01:51:08.519Z,3.09
2019-02-28T01:52:14.510Z,3.15
2019-02-28T01:53:20.396Z,3.10
2019-02-28T01:54:27.777Z,3.04
2019-02-28T01:55:32.513Z,3.01
2019-02-28T01:56:38.530Z,3.03
2019-02-28T01:57:44.544Z,2.93
2019-02-28T01:58:51.080Z,2.83
2019-02-28T01:59:56.614Z,2.89
2019-02-28T02:01:02.650Z,2.93
2019-02-28T02:02:08.576Z,2.95
2019-02-28T02:03:14.623Z,2.86
2019-02-28T02:04:20.542Z,2.74
2019-02-28T02:05:26.075Z,2.63
2019-02-28T02:06:32.196Z,2.57
2019-02-28T02:07:38.120Z,2.54
2019-02-28T02:08:44.082Z,2.69
2019-02-28T02:09:50.034Z,2.82
2019-02-28T02:10:56.166Z,2.89
2019-02-28T02:12:02.252Z,2.96
2019-02-28T02:13:08.214Z,2.92
2019-02-28T02:14:14.148Z,3.03
2019-02-28T02:15:20.271Z,3.04
2019-02-28T02:16:27.651Z,2.98
2019-02-28T02:17:35.451Z,2.98
2019-02-28T02:18:40.325Z,2.88
2019-02-28T02:19:44.487Z,2.87
2019-02-28T02:20:50.104Z,2.71
2019-02-28T02:21:57.009Z,2.72
2019-02-28T02:23:03.045Z,2.58
2019-02-28T02:24:08.980Z,2.57
2019-02-28T02:25:14.247Z,2.52
2019-02-28T02:26:20.378Z,2.73
2019-02-28T02:27:26.322Z,2.82
2019-02-28T02:28:32.225Z,3.01
2019-02-28T02:29:38.201Z,3.18
2019-02-28T02:30:50.534Z,3.28
2019-02-28T02:31:50.319Z,3.47
2019-02-28T02:32:56.195Z,3.56
2019-02-28T02:34:02.304Z,3.60
2019-02-28T02:35:08.429Z,3.57
2019-02-28T02:36:16.260Z,3.52
2019-02-28T02:37:21.594Z,3.50
2019-02-28T02:38:27.620Z,3.57
2019-02-28T02:39:33.669Z,3.62
2019-02-28T02:40:39.876Z,3.78
2019-02-28T02:41:45.963Z,3.83
2019-02-28T02:42:52.061Z,3.89
2019-02-28T02:43:58.149Z,3.90
2019-02-28T02:45:05.493Z,3.85
2019-02-28T02:46:09.722Z,3.70
2019-02-28T02:47:15.699Z,3.68
2019-02-28T02:48:21.716Z,3.62
2019-02-28T02:49:27.671Z,3.56
2019-02-28T02:50:35.855Z,3.43
2019-02-28T02:51:40.045Z,3.33
2019-02-28T02:52:46.016Z,3.35
2019-02-28T02:53:51.930Z,3.38
2019-02-28T02:54:57.852Z,3.43
2019-02-28T02:56:04.927Z,3.69
2019-02-28T02:57:13.897Z,3.98
2019-02-28T02:58:15.718Z,4.20
2019-02-28T02:59:21.628Z,4.33
2019-02-28T03:00:27.556Z,4.58
2019-02-28T03:01:33.485Z,4.73
2019-02-28T03:02:39.404Z,4.99
2019-02-28T03:03:45.335Z,5.21
2019-02-28T03:04:57.881Z,5.43
2019-02-28T03:05:56.829Z,5.47
2019-02-28T03:07:02.777Z,5.60
2019-02-28T03:08:08.666Z,5.74
2019-02-28T03:09:14.570Z,5.81
2019-02-28T03:10:20.260Z,5.63
2019-02-28T03:11:26.240Z,5.71
2019-02-28T03:12:32.967Z,5.84
2019-02-28T03:13:42.163Z,5.99
2019-02-28T03:14:44.062Z,6.03
2019-02-28T03:15:50.017Z,6.06
2019-02-28T03:16:55.972Z,6.24
2019-02-28T03:18:02.164Z,6.23
2019-02-28T03:19:08.575Z,6.21
2019-02-28T03:20:13.809Z,6.07
2019-02-28T03:21:19.724Z,6.01
2019-02-28T03:22:29.803Z,5.98
2019-02-28T03:23:37.870Z,5.84
2019-02-28T03:24:38.217Z,5.93
2019-02-28T03:25:44.271Z,6.03
2019-02-28T03:26:50.274Z,6.03
2019-02-28T03:27:56.823Z,6.01
2019-02-28T03:29:07.482Z,5.91
2019-02-28T03:30:09.341Z,5.75
2019-02-28T03:31:15.985Z,5.74
2019-02-28T03:32:21.409Z,5.80
2019-02-28T03:33:28.867Z,5.89
2019-02-28T03:34:33.334Z,5.84
2019-02-28T03:35:42.988Z,5.88
2019-02-28T03:36:55.262Z,5.96
2019-02-28T03:37:51.520Z,5.89
2019-02-28T03:38:57.468Z,5.85
2019-02-28T03:40:05.197Z,5.99
2019-02-28T03:41:16.299Z,5.91
2019-02-28T03:42:16.269Z,5.75
2019-02-28T03:43:22.191Z,5.66
2019-02-28T03:44:28.242Z,5.64
2019-02-28T03:45:35.322Z,5.60
2019-02-28T03:46:46.243Z,5.63
2019-02-28T03:47:46.153Z,5.59
2019-02-28T03:48:52.070Z,5.49
2019-02-28T03:49:58.012Z,5.53
2019-02-28T03:51:04.143Z,5.47
2019-02-28T03:52:10.042Z,5.44
2019-02-28T03:53:19.428Z,5.41
2019-02-28T03:54:21.942Z,5.33
2019-02-28T03:55:27.526Z,5.27
2019-02-28T03:56:33.786Z,5.17
2019-02-28T03:57:40.301Z,5.11
2019-02-28T03:58:45.896Z,5.02
2019-02-28T03:59:56.788Z,5.00
2019-02-28T04:00:57.403Z,5.08
2019-02-28T04:02:03.091Z,5.10
2019-02-28T04:03:08.762Z,5.06
2019-02-28T04:04:14.706Z,5.02
2019-02-28T04:05:26.504Z,5.02
2019-02-28T04:06:26.021Z,4.92
2019-02-28T04:07:34.577Z,4.78
2019-02-28T04:08:38.010Z,4.69
2019-02-28T04:09:45.179Z,4.48
2019-02-28T04:10:49.915Z,4.38
2019-02-28T04:11:55.916Z,4.37
2019-02-28T04:13:01.845Z,4.41
2019-02-28T04:14:07.383Z,4.66
2019-02-28T04:15:13.597Z,4.83
2019-02-28T04:16:19.537Z,4.91
2019-02-28T04:17:29.830Z,4.85
2019-02-28T04:18:31.019Z,4.79
2019-02-28T04:19:36.973Z,4.80
2019-02-28T04:20:42.843Z,4.75
2019-02-28T04:21:48.786Z,4.69
2019-02-28T04:22:58.753Z,4.66
2019-02-28T04:24:00.653Z,4.66
2019-02-28T04:25:05.909Z,4.75
2019-02-28T04:26:12.358Z,4.89
2019-02-28T04:27:18.311Z,4.87
2019-02-28T04:28:24.241Z,4.98
2019-02-28T04:29:31.381Z,4.93
2019-02-28T04:30:42.170Z,5.00
2019-02-28T04:31:42.306Z,5.15
2019-02-28T04:32:48.248Z,5.19
2019-02-28T04:33:54.125Z,5.22
2019-02-28T04:35:00.036Z,5.38
2019-02-28T04:36:05.940Z,5.47
2019-02-28T04:37:11.826Z,5.52
2019-02-28T04:38:20.705Z,5.56
2019-02-28T04:39:24.104Z,5.52
2019-02-28T04:40:30.064Z,5.49
2019-02-28T04:41:35.952Z,5.60
2019-02-28T04:42:41.845Z,5.65
2019-02-28T04:43:48.464Z,5.60
2019-02-28T04:44:54.876Z,5.65
2019-02-28T04:46:00.784Z,5.78
2019-02-28T04:47:07.555Z,5.89
2019-02-28T04:48:13.892Z,5.85
2019-02-28T04:49:21.819Z,5.78
2019-02-28T04:50:24.473Z,5.87
2019-02-28T04:51:30.348Z,5.99
2019-02-28T04:52:36.291Z,6.15
2019-02-28T04:53:42.163Z,6.24
2019-02-28T04:54:48.069Z,6.16
2019-02-28T04:55:54.000Z,6.14
2019-02-28T04:56:59.974Z,6.33
2019-02-28T04:58:05.829Z,6.46
2019-02-28T04:59:11.749Z,6.26
2019-02-28T05:00:16.969Z,6.24
2019-02-28T05:01:23.028Z,6.12
2019-02-28T05:02:28.985Z,5.99
2019-02-28T05:03:34.904Z,6.03
2019-02-28T05:04:40.872Z,6.14
2019-02-28T05:05:47.661Z,6.31
2019-02-28T05:06:55.138Z,6.39
2019-02-28T05:08:04.661Z,6.59
2019-02-28T05:09:03.978Z,6.67
2019-02-28T05:10:09.210Z,6.77
2019-02-28T05:11:15.121Z,6.84
2019-02-28T05:12:21.025Z,6.88
2019-02-28T05:13:26.928Z,6.86
2019-02-28T05:14:32.833Z,6.93
2019-02-28T05:15:41.035Z,6.91
2019-02-28T05:16:47.470Z,7.19
2019-02-28T05:17:53.060Z,7.31
2019-02-28T05:18:58.259Z,7.45
2019-02-28T05:20:02.418Z,7.51
2019-02-28T05:21:08.319Z,7.49
2019-02-28T05:22:14.253Z,7.37
2019-02-28T05:23:20.233Z,7.43
2019-02-28T05:24:26.146Z,7.38
2019-02-28T05:25:32.043Z,7.41
2019-02-28T05:26:37.952Z,7.58
2019-02-28T05:27:43.893Z,7.61
2019-02-28T05:28:49.947Z,7.51
2019-02-28T05:29:55.847Z,7.54
2019-02-28T05:31:01.787Z,7.59
2019-02-28T05:32:07.677Z,7.59
2019-02-28T05:33:13.544Z,7.62
2019-02-28T05:34:19.515Z,7.58
2019-02-28T05:35:26.598Z,7.45
2019-02-28T05:36:31.087Z,7.60
2019-02-28T05:37:36.982Z,7.59
2019-02-28T05:38:42.910Z,7.45
2019-02-28T05:39:48.866Z,7.44
2019-02-28T05:40:55.518Z,7.43
2019-02-28T05:42:00.771Z,7.52
2019-02-28T05:43:06.679Z,7.63
2019-02-28T05:44:12.588Z,7.47
2019-02-28T05:45:18.225Z,7.54
2019-02-28T05:46:24.601Z,7.61
2019-02-28T05:47:32.446Z,7.56
2019-02-28T05:48:38.731Z,7.41
2019-02-28T05:49:43.360Z,7.46
2019-02-28T05:50:52.799Z,7.53
2019-02-28T05:51:58.618Z,7.52
2019-02-28T05:53:02.922Z,7.36
2019-02-28T05:54:06.772Z,7.30
2019-02-28T05:55:11.963Z,7.39
2019-02-28T05:56:17.870Z,7.50
2019-02-28T05:57:23.789Z,7.39
2019-02-28T05:58:29.693Z,7.24
2019-02-28T05:59:35.635Z,7.47
2019-02-28T06:00:41.552Z,7.45
2019-02-28T06:01:47.764Z,7.48
2019-02-28T06:02:54.495Z,7.38
2019-02-28T06:04:02.911Z,7.54
2019-02-28T06:05:04.197Z,7.58
2019-02-28T06:06:10.133Z,7.61
2019-02-28T06:07:16.069Z,7.67
2019-02-28T06:08:22.736Z,7.70
2019-02-28T06:09:29.015Z,7.52
2019-02-28T06:10:34.910Z,7.46
2019-02-28T06:11:40.804Z,7.52
2019-02-28T06:12:46.817Z,7.37
2019-02-28T06:13:53.471Z,7.41
2019-02-28T06:15:03.228Z,7.46
2019-02-28T06:16:04.576Z,7.51
2019-02-28T06:17:10.432Z,7.47
2019-02-28T06:18:16.367Z,7.30
2019-02-28T06:19:22.300Z,7.32
2019-02-28T06:20:28.191Z,7.36
2019-02-28T06:21:34.109Z,7.41
2019-02-28T06:22:39.649Z,7.34
2019-02-28T06:23:45.592Z,7.18
2019-02-28T06:24:51.492Z,7.12
2019-02-28T06:25:59.304Z,6.96
2019-02-28T06:27:03.653Z,6.88
2019-02-28T06:28:09.361Z,6.92
2019-02-28T06:29:15.278Z,6.92
2019-02-28T06:30:21.183Z,7.06
2019-02-28T06:31:27.090Z,6.98
2019-02-28T06:32:32.974Z,7.03
2019-02-28T06:33:38.871Z,7.07
2019-02-28T06:34:44.769Z,7.28
2019-02-28T06:35:53.532Z,7.15
2019-02-28T06:36:56.639Z,7.06
2019-02-28T06:38:02.237Z,7.03
2019-02-28T06:39:07.482Z,6.92
2019-02-28T06:40:14.514Z,6.91
2019-02-28T06:41:20.417Z,7.04
2019-02-28T06:42:26.349Z,6.96
2019-02-28T06:43:32.257Z,6.76
2019-02-28T06:44:38.118Z,6.54
2019-02-28T06:45:44.142Z,6.62
2019-02-28T06:46:50.465Z,6.81
2019-02-28T06:47:56.840Z,6.65
2019-02-28T06:49:06.998Z,6.65
2019-02-28T06:50:08.137Z,6.69
2019-02-28T06:51:16.845Z,6.70
2019-02-28T06:52:22.273Z,6.68
2019-02-28T06:53:25.840Z,6.76
2019-02-28T06:54:31.764Z,6.63
2019-02-28T06:55:37.476Z,6.69
2019-02-28T06:56:43.523Z,6.78
2019-02-28T06:57:49.485Z,6.75
2019-02-28T06:58:55.388Z,6.70
2019-02-28T07:00:01.325Z,6.73
2019-02-28T07:01:07.265Z,6.99
2019-02-28T07:02:13.211Z,7.00
2019-02-28T07:03:19.130Z,7.06
2019-02-28T07:04:25.071Z,7.20
2019-02-28T07:05:31.004Z,7.24
2019-02-28T07:06:36.936Z,7.25
2019-02-28T07:07:45.609Z,7.23
2019-02-28T07:08:48.419Z,7.24
2019-02-28T07:09:54.360Z,7.41
2019-02-28T07:11:00.273Z,7.42
2019-02-28T07:12:07.162Z,7.57
2019-02-28T07:13:13.740Z,7.72
2019-02-28T07:14:19.614Z,7.71
2019-02-28T07:15:25.543Z,7.69
2019-02-28T07:16:34.572Z,7.74
2019-02-28T07:17:37.523Z,7.73
2019-02-28T07:18:43.387Z,7.79
2019-02-28T07:19:49.373Z,7.80
2019-02-28T07:20:55.293Z,7.88
2019-02-28T07:22:01.239Z,7.98
2019-02-28T07:23:07.115Z,7.82
2019-02-28T07:24:13.085Z,7.75
2019-02-28T07:25:19.236Z,7.65
2019-02-28T07:26:25.166Z,7.73
2019-02-28T07:27:31.103Z,7.82
2019-02-28T07:28:37.702Z,7.81
2019-02-28T07:29:43.559Z,7.76
2019-02-28T07:30:50.379Z,7.70
2019-02-28T07:32:00.057Z,7.72
2019-02-28T07:33:00.702Z,7.84
2019-02-28T07:34:06.670Z,7.94
2019-02-28T07:35:12.163Z,8.01
2019-02-28T07:36:18.105Z,8.06
2019-02-28T07:37:24.052Z,8.07
2019-02-28T07:38:29.973Z,8.05
2019-02-28T07:39:36.509Z,8.15
2019-02-28T07:40:41.930Z,8.26
2019-02-28T07:41:47.873Z,8.28
2019-02-28T07:42:53.782Z,8.30
2019-02-28T07:43:59.746Z,8.31
2019-02-28T07:45:04.942Z,8.33
2019-02-28T07:46:10.882Z,8.28
2019-02-28T07:47:17.723Z,8.55
2019-02-28T07:48:26.796Z,8.59
2019-02-28T07:49:28.719Z,8.72
2019-02-28T07:50:34.622Z,8.67
2019-02-28T07:51:40.559Z,8.55
2019-02-28T07:52:46.461Z,8.67
2019-02-28T07:53:52.377Z,8.79
2019-02-28T07:54:58.510Z,8.98
2019-02-28T07:56:07.776Z,9.05
2019-02-28T07:57:17.021Z,9.09
2019-02-28T07:58:18.818Z,9.09
2019-02-28T07:59:24.710Z,9.23
2019-02-28T08:00:30.601Z,9.22
2019-02-28T08:01:36.112Z,9.29
2019-02-28T08:02:42.072Z,9.24
2019-02-28T08:03:47.957Z,9.14
2019-02-28T08:04:54.587Z,9.23
2019-02-28T08:06:04.498Z,9.26
2019-02-28T08:07:05.021Z,9.34
2019-02-28T08:08:10.554Z,9.33
2019-02-28T08:09:18.670Z,9.29
2019-02-28T08:10:24.775Z,9.41
2019-02-28T08:11:30.628Z,9.52
2019-02-28T08:12:36.211Z,9.61
2019-02-28T08:13:41.750Z,9.63
2019-02-28T08:14:47.918Z,9.73
2019-02-28T08:15:53.386Z,9.68
2019-02-28T08:16:59.183Z,9.79
2019-02-28T08:18:05.828Z,9.87
2019-02-28T08:19:10.716Z,9.93
2019-02-28T08:20:16.267Z,9.98
2019-02-28T08:21:21.861Z,10.04
2019-02-28T08:22:27.734Z,10.09
2019-02-28T08:23:33.640Z,10.01
2019-02-28T08:24:39.547Z,10.11
2019-02-28T08:25:45.149Z,10.17
2019-02-28T08:26:53.625Z,10.25
2019-02-28T08:27:59.925Z,10.31
2019-02-28T08:29:02.984Z,10.37
2019-02-28T08:30:12.087Z,10.46
2019-02-28T08:31:17.615Z,10.50
2019-02-28T08:32:23.567Z,10.54
2019-02-28T08:33:29.523Z,10.58
2019-02-28T08:34:35.571Z,10.64
2019-02-28T08:35:42.251Z,10.68
2019-02-28T08:36:49.020Z,10.68
2019-02-28T08:37:57.255Z,10.74
2019-02-28T08:39:02.860Z,10.68
2019-02-28T08:40:12.558Z,10.70
2019-02-28T08:41:16.002Z,10.76
2019-02-28T08:42:21.950Z,10.84
2019-02-28T08:43:27.844Z,10.86
2019-02-28T08:44:33.773Z,10.96
2019-02-28T08:45:39.683Z,11.04
2019-02-28T08:46:46.391Z,11.15
2019-02-28T08:47:55.254Z,11.20
2019-02-28T08:48:57.088Z,11.32
2019-02-28T08:50:02.633Z,11.38
2019-02-28T08:51:08.223Z,11.35
2019-02-28T08:52:14.135Z,11.50
2019-02-28T08:53:20.014Z,11.54
2019-02-28T08:54:27.269Z,11.51
2019-02-28T08:55:31.595Z,11.49
2019-02-28T08:56:37.475Z,11.41
2019-02-28T08:57:43.123Z,11.55
2019-02-28T08:58:49.120Z,11.77
2019-02-28T08:59:56.379Z,11.86
2019-02-28T09:01:00.798Z,11.97
2019-02-28T09:02:06.068Z,12.06
2019-02-28T09:03:12.002Z,12.11
2019-02-28T09:04:17.932Z,12.09
2019-02-28T09:05:27.291Z,12.09
2019-02-28T09:06:29.423Z,12.03
2019-02-28T09:07:35.379Z,12.03
2019-02-28T09:08:41.266Z,12.08
2019-02-28T09:09:47.160Z,12.21
2019-02-28T09:10:52.700Z,12.36
2019-02-28T09:11:58.909Z,12.22
2019-02-28T09:13:07.586Z,12.33
2019-02-28T09:14:10.391Z,12.31
2019-02-28T09:15:15.108Z,12.35
2019-02-28T09:16:21.013Z,12.35
2019-02-28T09:17:27.038Z,12.22
2019-02-28T09:18:33.122Z,12.26
2019-02-28T09:19:39.862Z,12.31
2019-02-28T09:20:46.834Z,12.48
2019-02-28T09:21:53.772Z,12.55
2019-02-28T09:23:02.272Z,12.55
2019-02-28T09:24:04.869Z,12.46
2019-02-28T09:25:22.024Z,12.62
2019-02-28T09:26:28.285Z,12.86
2019-02-28T09:27:35.244Z,12.89
2019-02-28T09:28:38.447Z,12.76
2019-02-28T09:29:44.379Z,12.66
2019-02-28T09:30:51.431Z,12.51
2019-02-28T09:31:56.986Z,12.60
2019-02-28T09:33:02.956Z,12.82
2019-02-28T09:34:09.278Z,12.68
2019-02-28T09:35:14.599Z,12.80
2019-02-28T09:36:20.668Z,12.99
2019-02-28T09:37:29.472Z,13.05
2019-02-28T09:38:32.190Z,13.10
2019-02-28T09:39:38.112Z,13.10
2019-02-28T09:40:44.202Z,12.99
2019-02-28T09:41:50.147Z,13.03
2019-02-28T09:42:56.347Z,12.96
2019-02-28T09:44:02.221Z,13.06
2019-02-28T09:45:08.227Z,13.08
2019-02-28T09:46:15.533Z,13.01
2019-02-28T09:47:20.213Z,13.00
2019-02-28T09:48:25.771Z,12.99
2019-02-28T09:49:31.674Z,12.99
2019-02-28T09:50:37.604Z,13.09
2019-02-28T09:51:43.532Z,13.03
2019-02-28T09:52:49.257Z,13.08
2019-02-28T09:53:55.353Z,13.16
2019-02-28T09:55:01.216Z,12.99
2019-02-28T09:56:09.318Z,13.20
2019-02-28T09:57:15.378Z,13.12
2019-02-28T09:58:18.746Z,13.04
2019-02-28T09:59:24.876Z,13.14
2019-02-28T10:00:30.084Z,13.11
2019-02-28T10:01:36.037Z,13.16
2019-02-28T10:02:43.904Z,13.20
2019-02-28T10:03:47.887Z,13.42
2019-02-28T10:04:53.795Z,13.35
2019-02-28T10:05:59.877Z,13.25
2019-02-28T10:07:05.850Z,13.23
2019-02-28T10:08:11.433Z,13.31
2019-02-28T10:09:17.768Z,13.30
2019-02-28T10:10:23.966Z,13.27
2019-02-28T10:11:31.895Z,13.26
2019-02-28T10:12:36.324Z,13.41
2019-02-28T10:13:42.278Z,13.56
2019-02-28T10:14:48.388Z,13.34
2019-02-28T10:15:54.298Z,13.34
2019-02-28T10:17:00.196Z,13.41
2019-02-28T10:18:05.993Z,13.31
2019-02-28T10:19:13.441Z,13.32
2019-02-28T10:20:27.055Z,13.37
2019-02-28T10:21:33.341Z,13.43
2019-02-28T10:22:36.911Z,13.45
2019-02-28T10:23:43.029Z,13.44
2019-02-28T10:24:49.137Z,13.40
2019-02-28T10:25:54.849Z,13.36
2019-02-28T10:27:00.793Z,13.30
2019-02-28T10:28:06.751Z,13.38
2019-02-28T10:29:12.723Z,13.47
2019-02-28T10:30:30.771Z,13.48
2019-02-28T10:31:36.255Z,13.49
2019-02-28T10:32:33.656Z,13.71
2019-02-28T10:33:39.672Z,13.71
2019-02-28T10:34:45.676Z,13.68
2019-02-28T10:35:51.583Z,13.52
2019-02-28T10:36:57.577Z,13.60
2019-02-28T10:38:03.721Z,13.57
2019-02-28T10:39:10.404Z,13.50
2019-02-28T10:40:17.704Z,13.35
2019-02-28T10:41:24.218Z,13.29
2019-02-28T10:42:28.668Z,13.33
2019-02-28T10:43:34.711Z,13.24
2019-02-28T10:44:40.877Z,13.30
2019-02-28T10:45:46.871Z,13.49
2019-02-28T10:46:53.805Z,13.59
2019-02-28T10:48:02.906Z,13.76
2019-02-28T10:49:05.650Z,13.65
2019-02-28T10:50:11.675Z,13.56
2019-02-28T10:51:17.589Z,13.81
2019-02-28T10:52:26.773Z,13.83
2019-02-28T10:53:29.645Z,13.96
2019-02-28T10:54:35.528Z,13.90
2019-02-28T10:55:41.217Z,13.87
2019-02-28T10:56:47.203Z,14.03
2019-02-28T10:57:52.479Z,14.00
2019-02-28T10:58:58.457Z,14.01
2019-02-28T11:00:03.798Z,13.98
2019-02-28T11:01:09.108Z,14.19
2019-02-28T11:02:19.008Z,14.48
2019-02-28T11:03:19.623Z,14.60
2019-02-28T11:04:25.241Z,14.51
2019-02-28T11:05:34.149Z,14.33
2019-02-28T11:06:39.612Z,14.33
2019-02-28T11:07:46.242Z,14.33
2019-02-28T11:08:52.603Z,14.40
2019-02-28T11:09:59.404Z,14.45
2019-02-28T11:11:03.901Z,14.58
2019-02-28T11:12:09.582Z,14.77
2019-02-28T11:13:17.568Z,14.77
2019-02-28T11:14:23.562Z,15.02
2019-02-28T11:15:28.829Z,15.00
2019-02-28T11:16:36.140Z,14.85
2019-02-28T11:17:41.158Z,14.88
2019-02-28T11:18:46.472Z,15.03
2019-02-28T11:19:52.904Z,14.85
2019-02-28T11:20:58.452Z,14.95
2019-02-28T11:22:04.910Z,15.18
2019-02-28T11:23:11.533Z,15.17
2019-02-28T11:24:14.140Z,15.00
2019-02-28T11:25:19.444Z,14.75
2019-02-28T11:26:24.842Z,14.92
2019-02-28T11:27:30.811Z,15.06
2019-02-28T11:28:36.661Z,15.26
2019-02-28T11:29:42.900Z,14.98
2019-02-28T11:30:47.638Z,15.03
2019-02-28T11:31:54.237Z,15.20
2019-02-28T11:33:03.238Z,15.28
2019-02-28T11:34:04.363Z,15.27
2019-02-28T11:35:09.611Z,15.37
2019-02-28T11:36:15.552Z,15.53
2019-02-28T11:37:21.203Z,15.40
2019-02-28T11:38:26.974Z,15.42
2019-02-28T11:39:33.713Z,15.45
2019-02-28T11:40:40.523Z,15.50
2019-02-28T11:41:44.448Z,15.41
2019-02-28T11:42:49.991Z,15.42
2019-02-28T11:43:56.124Z,15.35
2019-02-28T11:45:02.041Z,15.43
2019-02-28T11:46:07.282Z,15.46
2019-02-28T11:47:12.628Z,15.45
2019-02-28T11:48:20.193Z,15.58
2019-02-28T11:49:25.595Z,15.48
2019-02-28T11:50:30.321Z,15.62
2019-02-28T11:51:35.848Z,15.55
2019-02-28T11:52:41.410Z,15.55
2019-02-28T11:53:47.321Z,15.65
2019-02-28T11:54:53.232Z,15.61
2019-02-28T11:55:59.120Z,15.79
2019-02-28T11:57:06.697Z,15.67
2019-02-28T11:58:09.917Z,15.90
2019-02-28T11:59:15.887Z,16.00
2019-02-28T12:00:23.570Z,16.11
2019-02-28T12:01:29.475Z,15.94
2019-02-28T12:02:35.370Z,15.73
2019-02-28T12:03:41.297Z,15.63
2019-02-28T12:04:47.169Z,15.66
2019-02-28T12:05:53.073Z,15.87
2019-02-28T12:07:00.991Z,15.88
2019-02-28T12:08:09.214Z,15.65
2019-02-28T12:09:09.786Z,15.53
2019-02-28T12:10:14.991Z,15.53
2019-02-28T12:11:20.915Z,15.55
2019-02-28T12:12:26.868Z,15.43
2019-02-28T12:13:32.784Z,15.39
2019-02-28T12:14:38.716Z,15.52
2019-02-28T12:15:44.593Z,15.43
2019-02-28T12:16:53.633Z,15.47
2019-02-28T12:17:56.440Z,15.42
2019-02-28T12:19:02.446Z,15.43
2019-02-28T12:20:08.492Z,15.59
2019-02-28T12:21:14.437Z,15.40
2019-02-28T12:22:19.601Z,15.52
2019-02-28T12:23:25.511Z,15.67
2019-02-28T12:24:32.409Z,15.54
2019-02-28T12:25:39.558Z,15.62
2019-02-28T12:26:42.658Z,15.97
2019-02-28T12:27:48.214Z,15.94
2019-02-28T12:28:54.387Z,15.89
2019-02-28T12:29:59.726Z,16.03
2019-02-28T12:31:05.291Z,15.69
2019-02-28T12:32:12.108Z,15.69
2019-02-28T12:33:23.020Z,15.87
2019-02-28T12:34:28.989Z,15.94
2019-02-28T12:35:37.502Z,16.27
2019-02-28T12:36:36.970Z,16.05
2019-02-28T12:37:42.848Z,16.27
2019-02-28T12:38:48.409Z,16.32
2019-02-28T12:39:54.341Z,16.28
2019-02-28T12:41:00.230Z,16.33
2019-02-28T12:42:05.240Z,16.14
2019-02-28T12:43:10.574Z,16.15
2019-02-28T12:44:16.465Z,16.28
2019-02-28T12:45:29.860Z,16.09
2019-02-28T12:46:35.837Z,16.22
2019-02-28T12:47:41.586Z,16.06
2019-02-28T12:48:48.341Z,15.98
2019-02-28T12:49:54.311Z,15.94
2019-02-28T12:50:58.186Z,15.71
2019-02-28T12:52:03.775Z,16.02
2019-02-28T12:53:10.241Z,16.04
2019-02-28T12:54:16.632Z,16.17
2019-02-28T12:55:22.190Z,16.39
2019-02-28T12:56:28.133Z,16.48
2019-02-28T12:57:33.711Z,16.68
2019-02-28T12:58:41.577Z,16.78
2019-02-28T12:59:46.102Z,16.69
2019-02-28T13:00:51.141Z,16.66
2019-02-28T13:01:57.081Z,16.24
2019-02-28T13:03:02.946Z,15.98
2019-02-28T13:04:08.507Z,15.96
2019-02-28T13:05:15.834Z,15.85
2019-02-28T13:06:23.434Z,15.78
2019-02-28T13:07:25.183Z,15.45
2019-02-28T13:08:31.079Z,15.44
2019-02-28T13:09:36.642Z,15.58
2019-02-28T13:10:42.549Z,15.75
2019-02-28T13:11:48.437Z,15.86
2019-02-28T13:13:05.321Z,15.77
2019-02-28T13:14:02.657Z,15.88
2019-02-28T13:15:05.322Z,15.90
2019-02-28T13:16:10.861Z,15.65
2019-02-28T13:17:16.739Z,15.45
2019-02-28T13:18:22.669Z,15.24
2019-02-28T13:19:27.923Z,15.17
2019-02-28T13:20:34.173Z,15.06
2019-02-28T13:21:39.515Z,15.11
2019-02-28T13:22:45.049Z,15.22
2019-02-28T13:23:50.943Z,15.20
2019-02-28T13:24:56.864Z,15.16
2019-02-28T13:26:02.438Z,15.02
2019-02-28T13:27:09.900Z,14.93
2019-02-28T13:28:18.103Z,15.13
2019-02-28T13:29:22.098Z,15.10
2019-02-28T13:30:25.276Z,15.06
2019-02-28T13:31:30.867Z,15.06
2019-02-28T13:32:38.272Z,14.87
2019-02-28T13:33:42.844Z,14.75
2019-02-28T13:34:48.757Z,14.66
2019-02-28T13:35:55.072Z,14.86
2019-02-28T13:37:03.151Z,14.91
2019-02-28T13:38:06.979Z,14.83
2019-02-28T13:39:12.534Z,14.70
2019-02-28T13:40:18.212Z,14.90
2019-02-28T13:41:26.771Z,14.78
2019-02-28T13:42:30.049Z,14.93
2019-02-28T13:44:52.461Z,14.97
2019-02-28T13:45:58.031Z,15.06
2019-02-28T13:47:09.139Z,15.00
2019-02-28T13:48:09.965Z,15.07
2019-02-28T13:49:15.577Z,15.08
2019-02-28T13:50:22.151Z,15.05
2019-02-28T13:51:26.653Z,15.13
2019-02-28T13:52:32.557Z,15.05
2019-02-28T13:53:38.442Z,15.11
2019-02-28T13:54:44.036Z,15.12
2019-02-28T13:55:52.959Z,14.94
2019-02-28T13:56:56.174Z,15.04
2019-02-28T13:58:01.853Z,15.18
2019-02-28T13:59:07.781Z,14.96
2019-02-28T14:01:52.102Z,14.94
2019-02-28T14:02:56.557Z,14.87
2019-02-28T14:04:02.136Z,14.78
2019-02-28T14:05:07.405Z,14.81
2019-02-28T14:06:18.881Z,14.75
2019-02-28T14:07:18.998Z,14.86
2019-02-28T14:08:24.894Z,14.92
2019-02-28T14:09:30.769Z,15.01
2019-02-28T14:10:36.018Z,15.00
2019-02-28T14:11:41.742Z,15.11
2019-02-28T14:12:47.264Z,14.79
2019-02-28T14:13:52.923Z,14.75
2019-02-28T14:14:58.909Z,14.66
2019-02-28T14:16:04.858Z,14.68
2019-02-28T14:17:10.460Z,14.81
2019-02-28T14:18:16.001Z,14.88
2019-02-28T14:19:21.938Z,14.85
2019-02-28T14:20:27.779Z,14.97
2019-02-28T14:21:34.430Z,14.76
2019-02-28T14:22:38.080Z,14.82
2019-02-28T14:23:43.932Z,14.84
2019-02-28T14:24:49.553Z,14.60
2019-02-28T14:25:55.450Z,14.57
2019-02-28T14:27:02.045Z,14.36
2019-02-28T14:28:07.265Z,14.42